Split Rock, Wisconsin
Current Conditions -  °F | °C
As of 4:35 AM on Monday 22 Dec 2014 (Local Time) from KCLI Reporting Station
Overcast Overcast  
Wind Chill: 26°   Ceiling: 2000
Heat Index: 34°   Visibility: 7mi
Dew Point: 30°   Wind: 10mph
Humidity: 87%   Direction: 160°SSE
Pressure: 29.9"   Gusts: NA
Location:  44.7254°N, 89.0642°W
Report Text: KCLI 221035Z AUTO 16009KT 7SM OVC020 01/M01 A2990 RMK AO2
Loading
Personal Weather Stations






























Interactive Weather Map New forecast layout! Learn more

10-Day Weather Forecast

Advertisements
Track Severe Weather on mobile